createdAt,value
2019-05-15T00:00:28.908Z,102863.05
2019-05-15T00:02:59.810Z,102868.41
2019-05-15T00:05:32.369Z,102864.02
2019-05-15T00:08:09.145Z,102857.87
2019-05-15T00:10:40.277Z,102861.34
2019-05-15T00:13:11.373Z,102865.34
2019-05-15T00:15:42.528Z,102864.86
2019-05-15T00:18:15.369Z,102865.24
2019-05-15T00:20:49.596Z,102867.66
2019-05-15T00:23:21.754Z,102871.63
2019-05-15T00:25:52.822Z,102867.63
2019-05-15T00:28:23.908Z,102868.50
2019-05-15T00:30:58.279Z,102851.91
2019-05-15T00:33:29.558Z,102860.55
2019-05-15T00:36:00.659Z,102857.92
2019-05-15T00:38:38.763Z,102855.69
2019-05-15T00:41:09.664Z,102851.33
2019-05-15T00:43:40.926Z,102857.44
2019-05-15T00:46:11.985Z,102851.06
2019-05-15T00:48:43.147Z,102843.17
2019-05-15T00:51:14.868Z,102844.00
2019-05-15T00:53:48.291Z,102847.42
2019-05-15T00:56:19.668Z,102843.65
2019-05-15T00:58:50.731Z,102846.45
2019-05-15T01:01:21.875Z,102844.74
2019-05-15T01:03:52.992Z,102842.73
2019-05-15T01:06:24.065Z,102846.77
2019-05-15T01:08:55.126Z,102834.92
2019-05-15T01:11:28.502Z,102838.86
2019-05-15T01:14:02.703Z,102844.66
2019-05-15T01:16:33.737Z,102837.76
2019-05-15T01:19:04.881Z,102835.67
2019-05-15T01:21:38.544Z,102840.09
2019-05-15T01:24:09.888Z,102830.44
2019-05-15T01:26:41.122Z,102831.67
2019-05-15T01:29:12.305Z,102829.87
2019-05-15T01:31:43.378Z,102822.05
2019-05-15T01:34:14.449Z,102817.63
2019-05-15T01:36:45.494Z,102825.78
2019-05-15T01:39:18.450Z,102831.40
2019-05-15T01:41:49.826Z,102821.26
2019-05-15T01:44:20.982Z,102811.90
2019-05-15T01:46:52.042Z,102812.48
2019-05-15T01:49:23.141Z,102819.11
2019-05-15T01:51:54.252Z,102808.00
2019-05-15T01:54:25.494Z,102815.94
2019-05-15T01:56:58.727Z,102808.00
2019-05-15T01:59:30.015Z,102802.34
2019-05-15T02:02:04.125Z,102806.19
2019-05-15T02:04:35.353Z,102793.50
2019-05-15T02:07:09.583Z,102794.42
2019-05-15T02:09:40.766Z,102789.95
2019-05-15T02:12:13.365Z,102785.02
2019-05-15T02:14:44.495Z,102778.08
2019-05-15T02:17:15.610Z,102771.55
2019-05-15T02:19:51.096Z,102768.81
2019-05-15T02:22:22.166Z,102768.33
2019-05-15T02:24:53.286Z,102761.39
2019-05-15T02:27:29.466Z,102759.59
2019-05-15T02:30:15.994Z,102751.84
2019-05-15T02:32:33.072Z,102753.59
2019-05-15T02:35:10.052Z,102754.86
2019-05-15T02:37:41.408Z,102747.98
2019-05-15T02:40:14.666Z,102744.28
2019-05-15T02:42:49.285Z,102750.47
2019-05-15T02:45:20.779Z,102747.44
2019-05-15T02:47:51.912Z,102745.69
2019-05-15T02:50:24.657Z,102742.85
2019-05-15T02:52:55.756Z,102741.64
2019-05-15T02:55:29.618Z,102745.37
2019-05-15T02:58:02.471Z,102742.52
2019-05-15T03:00:43.948Z,102736.56
2019-05-15T03:03:09.263Z,102738.31
2019-05-15T03:05:40.908Z,102738.22
2019-05-15T03:08:11.833Z,102734.66
2019-05-15T03:10:43.860Z,102743.88
2019-05-15T03:13:14.958Z,102746.56
2019-05-15T03:15:48.938Z,102740.02
2019-05-15T03:18:20.498Z,102741.04
2019-05-15T03:20:51.575Z,102739.09
2019-05-15T03:23:22.652Z,102739.84
2019-05-15T03:25:54.676Z,102748.08
2019-05-15T03:28:25.748Z,102745.59
2019-05-15T03:33:36.206Z,102755.39
2019-05-15T03:36:04.194Z,102751.87
2019-05-15T03:38:39.301Z,102753.98
2019-05-15T03:41:10.361Z,102761.88
2019-05-15T03:43:43.355Z,102751.55
2019-05-15T03:46:16.005Z,102746.17
2019-05-15T03:48:48.703Z,102751.92
2019-05-15T03:51:20.193Z,102753.58
2019-05-15T03:53:51.320Z,102751.14
2019-05-15T03:56:29.432Z,102750.52
2019-05-15T03:59:00.001Z,102752.32
2019-05-15T04:01:38.431Z,102746.01
2019-05-15T04:04:03.970Z,102749.37
2019-05-15T04:06:39.209Z,102737.72
2019-05-15T04:09:11.838Z,102749.42
2019-05-15T04:11:43.960Z,102743.17
2019-05-15T04:14:15.068Z,102734.38
2019-05-15T04:16:49.396Z,102733.46
2019-05-15T04:19:19.335Z,102729.11
2019-05-15T04:21:52.109Z,102736.53
2019-05-15T04:24:29.891Z,102730.42
2019-05-15T04:27:09.664Z,102727.24
2019-05-15T04:29:39.647Z,102728.47
2019-05-15T04:32:10.758Z,102733.62
2019-05-15T04:34:43.812Z,102732.58
2019-05-15T04:37:14.944Z,102728.63
2019-05-15T04:39:49.294Z,102731.86
2019-05-15T04:42:21.272Z,102726.80
2019-05-15T04:44:52.413Z,102734.20
2019-05-15T04:47:23.468Z,102730.17
2019-05-15T04:49:54.539Z,102732.56
2019-05-15T04:52:30.290Z,102731.78
2019-05-15T04:55:00.023Z,102725.98
2019-05-15T04:57:34.097Z,102733.67
2019-05-15T05:00:09.574Z,102733.33
2019-05-15T05:02:40.738Z,102724.55
2019-05-15T05:05:15.198Z,102726.25
2019-05-15T05:07:48.941Z,102727.17
2019-05-15T05:10:23.410Z,102723.62
2019-05-15T05:12:54.535Z,102720.64
2019-05-15T05:15:29.263Z,102727.19
2019-05-15T05:17:59.805Z,102723.33
2019-05-15T05:20:33.919Z,102724.68
2019-05-15T05:23:05.605Z,102727.80
2019-05-15T05:25:38.689Z,102731.31
2019-05-15T05:28:13.235Z,102730.43
2019-05-15T05:30:48.255Z,102735.39
2019-05-15T05:33:24.498Z,102741.58
2019-05-15T05:36:00.068Z,102746.09
2019-05-15T05:38:38.726Z,102735.64
2019-05-15T05:41:28.029Z,102747.09
2019-05-15T05:43:48.919Z,102742.58
2019-05-15T05:46:40.356Z,102742.02
2019-05-15T05:49:24.429Z,102746.80
2019-05-15T05:54:58.103Z,102752.81
2019-05-15T06:01:28.826Z,102751.70
2019-05-15T06:04:04.114Z,102748.29
2019-05-15T06:07:06.169Z,102749.81
2019-05-15T06:09:29.964Z,102749.86
2019-05-15T06:12:04.716Z,102745.37
2019-05-15T06:14:38.025Z,102741.23
2019-05-15T06:21:17.915Z,102732.42
2019-05-15T06:24:18.079Z,102740.23
2019-05-15T06:26:53.358Z,102739.20
2019-05-15T06:37:51.836Z,102738.47
2019-05-15T06:47:28.426Z,102735.81
2019-05-15T06:50:08.415Z,102741.38
2019-05-15T06:52:39.151Z,102727.42
2019-05-15T06:55:38.906Z,102740.22
2019-05-15T07:02:22.446Z,102755.80
2019-05-15T08:08:12.255Z,102720.80
2019-05-15T10:40:33.863Z,102639.58
2019-05-15T10:46:32.354Z,102638.80
2019-05-15T10:49:10.173Z,102638.38
2019-05-15T10:51:42.168Z,102653.16
2019-05-15T10:54:19.213Z,102642.09
2019-05-15T10:56:52.834Z,102626.95
2019-05-15T10:59:28.155Z,102611.88
2019-05-15T11:01:59.383Z,102629.23
2019-05-15T11:04:32.275Z,102626.24
2019-05-15T11:07:03.806Z,102624.33
2019-05-15T11:09:34.949Z,102619.97
2019-05-15T11:12:08.745Z,102625.62
2019-05-15T11:14:41.609Z,102624.34
2019-05-15T11:17:13.044Z,102614.06
2019-05-15T11:19:44.460Z,102627.55
2019-05-15T11:22:18.962Z,102601.55
2019-05-15T11:24:53.077Z,102627.69
2019-05-15T11:27:28.372Z,102630.69
2019-05-15T11:30:02.118Z,102616.04
2019-05-15T11:32:33.209Z,102613.36
2019-05-15T11:35:05.885Z,102609.08
2019-05-15T11:37:43.892Z,102603.05
2019-05-15T11:40:11.468Z,102617.02
2019-05-15T11:42:42.667Z,102593.88
2019-05-15T11:45:18.542Z,102606.37
2019-05-15T11:47:49.622Z,102593.80
2019-05-15T11:50:23.770Z,102604.47
2019-05-15T11:52:54.874Z,102609.61
2019-05-15T11:55:25.985Z,102598.29
2019-05-15T12:01:53.433Z,102599.35
2019-05-15T12:04:33.253Z,102597.47
2019-05-15T12:07:02.743Z,102596.64
2019-05-15T12:09:33.896Z,102607.80
2019-05-15T12:12:13.259Z,102607.23
2019-05-15T12:14:49.237Z,102616.72
2019-05-15T12:17:19.059Z,102607.84
2019-05-15T12:19:55.876Z,102600.70
2019-05-15T12:22:28.945Z,102609.36
2019-05-15T12:25:01.830Z,102620.43
2019-05-15T12:27:32.964Z,102610.16
2019-05-15T12:30:09.780Z,102611.88
2019-05-15T12:32:40.409Z,102610.25
2019-05-15T12:35:11.894Z,102609.61
2019-05-15T12:37:47.607Z,102636.08
2019-05-15T13:01:17.077Z,102599.62
2019-05-15T13:03:42.300Z,102612.13
2019-05-15T13:06:13.448Z,102601.61
2019-05-15T13:08:44.524Z,102587.85
2019-05-15T13:11:17.904Z,102592.09
2019-05-15T13:13:48.613Z,102609.86
2019-05-15T13:16:19.797Z,102591.91
2019-05-15T13:18:50.862Z,102583.88
2019-05-15T13:21:21.986Z,102570.91
2019-05-15T13:23:53.084Z,102572.52
2019-05-15T13:26:26.941Z,102569.66
2019-05-15T13:28:58.272Z,102566.06
2019-05-15T13:31:30.499Z,102579.59
2019-05-15T13:34:01.549Z,102565.02
2019-05-15T13:36:32.760Z,102567.14
2019-05-15T13:39:05.530Z,102571.77
2019-05-15T13:41:39.079Z,102563.28
2019-05-15T13:44:11.621Z,102570.69
2019-05-15T13:46:45.286Z,102568.43
2019-05-15T13:49:18.573Z,102565.71
2019-05-15T13:51:50.828Z,102589.44
2019-05-15T13:54:22.632Z,102569.22
2019-05-15T13:56:55.226Z,102580.73
2019-05-15T13:59:28.507Z,102565.78
2019-05-15T14:01:59.955Z,102571.58
2019-05-15T14:04:31.050Z,102571.95
2019-05-15T14:07:02.168Z,102576.70
2019-05-15T14:09:34.643Z,102567.77
2019-05-15T14:12:11.604Z,102575.31
2019-05-15T14:14:38.685Z,102568.69
2019-05-15T14:17:10.704Z,102564.47
2019-05-15T14:19:41.709Z,102558.66
2019-05-15T14:22:12.803Z,102544.69
2019-05-15T14:24:45.704Z,102544.06
2019-05-15T14:27:19.304Z,102532.47
2019-05-15T14:29:50.928Z,102559.13
2019-05-15T14:32:35.378Z,102534.56
2019-05-15T14:34:58.374Z,102531.71
2019-05-15T14:37:28.724Z,102532.11
2019-05-15T14:39:59.895Z,102531.52
2019-05-15T14:42:31.912Z,102533.13
2019-05-15T14:45:03.074Z,102526.05
2019-05-15T14:47:38.658Z,102523.95
2019-05-15T14:50:10.336Z,102526.20
2019-05-15T14:52:41.703Z,102528.59
2019-05-15T14:55:13.289Z,102512.53
2019-05-15T14:57:48.473Z,102508.76
2019-05-15T15:00:20.415Z,102511.58
2019-05-15T15:02:52.803Z,102510.20
2019-05-15T15:05:25.517Z,102510.54
2019-05-15T15:07:59.650Z,102503.44
2019-05-15T15:10:33.958Z,102509.56
2019-05-15T15:13:05.061Z,102503.72
2019-05-15T15:15:37.939Z,102503.56
2019-05-15T15:18:10.085Z,102497.04
2019-05-15T15:20:41.142Z,102496.50
2019-05-15T15:23:13.882Z,102504.47
2019-05-15T15:25:45.026Z,102492.40
2019-05-15T15:28:18.688Z,102486.18
2019-05-15T15:30:50.658Z,102488.43
2019-05-15T15:33:21.860Z,102475.95
2019-05-15T15:35:53.150Z,102477.56
2019-05-15T15:38:38.017Z,102483.07
2019-05-15T15:41:00.096Z,102475.86
2019-05-15T15:43:31.091Z,102472.30
2019-05-15T15:46:02.146Z,102472.91
2019-05-15T15:48:33.269Z,102463.34
2019-05-15T15:51:05.354Z,102463.14
2019-05-15T15:53:39.057Z,102455.43
2019-05-15T15:56:11.813Z,102461.50
2019-05-15T15:58:42.953Z,102459.67
2019-05-15T16:01:14.050Z,102449.92
2019-05-15T16:03:47.965Z,102455.20
2019-05-15T16:06:18.935Z,102449.59
2019-05-15T16:08:55.128Z,102450.43
2019-05-15T16:11:24.329Z,102444.42
2019-05-15T16:13:57.945Z,102451.20
2019-05-15T16:16:31.524Z,102445.97
2019-05-15T16:19:07.253Z,102442.82
2019-05-15T16:21:39.815Z,102443.04
2019-05-15T16:24:17.450Z,102438.88
2019-05-15T16:26:45.239Z,102419.94
2019-05-15T16:29:18.305Z,102436.30
2019-05-15T16:31:49.376Z,102421.64
2019-05-15T16:34:23.860Z,102425.39
2019-05-15T16:36:55.167Z,102424.44
2019-05-15T16:39:28.702Z,102420.23
2019-05-15T16:41:59.851Z,102428.03
2019-05-15T16:44:32.570Z,102413.88
2019-05-15T16:47:03.727Z,102415.70
2019-05-15T16:49:35.720Z,102418.91
2019-05-15T16:52:09.018Z,102419.13
2019-05-15T16:54:39.615Z,102411.30
2019-05-15T16:57:10.673Z,102413.33
2019-05-15T16:59:42.719Z,102411.41
2019-05-15T17:02:13.985Z,102419.95
2019-05-15T17:04:45.989Z,102415.52
2019-05-15T17:07:18.253Z,102415.88
2019-05-15T17:09:49.729Z,102414.16
2019-05-15T17:12:20.834Z,102414.14
2019-05-15T17:14:52.834Z,102420.45
2019-05-15T17:17:24.001Z,102425.32
2019-05-15T17:19:57.968Z,102433.95
2019-05-15T17:22:29.391Z,102436.70
2019-05-15T17:25:00.547Z,102435.42
2019-05-15T17:27:33.349Z,102432.96
2019-05-15T17:30:05.752Z,102427.83
2019-05-15T17:32:39.868Z,102419.45
2019-05-15T17:35:12.318Z,102419.52
2019-05-15T17:37:43.723Z,102421.52
2019-05-15T17:40:17.664Z,102424.17
2019-05-15T17:42:50.573Z,102424.26
2019-05-15T17:45:23.332Z,102427.50
2019-05-15T17:47:54.814Z,102422.58
2019-05-15T17:50:28.312Z,102429.69
2019-05-15T17:52:59.601Z,102418.80
2019-05-15T17:55:30.760Z,102424.19
2019-05-15T17:58:01.946Z,102413.30
2019-05-15T18:00:33.866Z,102412.39
2019-05-15T18:03:05.090Z,102413.88
2019-05-15T18:05:39.181Z,102413.58
2019-05-15T18:08:10.452Z,102422.87
2019-05-15T18:10:41.587Z,102416.16
2019-05-15T18:13:12.639Z,102427.66
2019-05-15T18:15:45.178Z,102417.49
2019-05-15T18:18:18.512Z,102416.79
2019-05-15T18:20:49.985Z,102411.09
2019-05-15T18:23:23.664Z,102406.69
2019-05-15T18:25:54.982Z,102405.81
2019-05-15T18:28:26.260Z,102410.59
2019-05-15T18:30:58.768Z,102411.96
2019-05-15T18:33:31.507Z,102408.64
2019-05-15T18:36:04.995Z,102414.81
2019-05-15T18:38:38.588Z,102401.06
2019-05-15T18:41:09.157Z,102401.05
2019-05-15T18:43:40.317Z,102409.41
2019-05-15T18:46:12.297Z,102404.13
2019-05-15T18:48:43.441Z,102402.05
2019-05-15T18:51:15.369Z,102395.91
2019-05-15T18:53:48.201Z,102394.98
2019-05-15T18:56:19.600Z,102396.13
2019-05-15T18:58:50.668Z,102395.11
2019-05-15T19:01:21.897Z,102388.75
2019-05-15T19:03:53.191Z,102390.36
2019-05-15T19:10:20.457Z,102396.08
2019-05-15T19:12:58.648Z,102397.31
2019-05-15T19:15:32.311Z,102407.89
2019-05-15T19:18:02.539Z,102399.76
2019-05-15T19:20:33.903Z,102403.19
2019-05-15T19:23:08.007Z,102415.70
2019-05-15T19:25:42.531Z,102412.22
2019-05-15T19:28:24.515Z,102410.27
2019-05-15T19:41:29.484Z,102413.21
2019-05-15T19:44:00.929Z,102407.64
2019-05-15T19:46:34.042Z,102419.69
2019-05-15T19:49:05.094Z,102423.65
2019-05-15T19:51:38.125Z,102426.78
2019-05-15T19:54:09.419Z,102416.55
2019-05-15T19:56:41.324Z,102416.23
2019-05-15T19:59:12.401Z,102410.39
2019-05-15T20:01:45.279Z,102410.39
2019-05-15T20:04:18.439Z,102401.08
2019-05-15T20:06:49.407Z,102390.42
2019-05-15T20:09:20.497Z,102389.53
2019-05-15T20:11:52.421Z,102380.38
2019-05-15T20:14:28.825Z,102370.75
2019-05-15T20:17:00.073Z,102375.47
2019-05-15T20:19:32.727Z,102383.45
2019-05-15T20:22:03.843Z,102380.48
2019-05-15T20:24:38.173Z,102382.99
2019-05-15T20:27:11.165Z,102385.29
2019-05-15T20:29:42.257Z,102379.14
2019-05-15T20:32:18.449Z,102382.28
2019-05-15T20:34:49.806Z,102380.38
2019-05-15T20:37:20.927Z,102376.53
2019-05-15T20:40:03.555Z,102374.73
2019-05-15T20:42:34.862Z,102375.91
2019-05-15T20:45:11.627Z,102369.83
2019-05-15T20:47:47.846Z,102360.66
2019-05-15T20:50:19.466Z,102367.07
2019-05-15T20:52:52.134Z,102372.44
2019-05-15T20:55:23.175Z,102371.66
2019-05-15T20:57:55.168Z,102367.30
2019-05-15T21:00:27.724Z,102370.41
2019-05-15T21:02:58.831Z,102367.39
2019-05-15T21:05:29.935Z,102360.37
2019-05-15T21:08:01.287Z,102358.66
2019-05-15T21:10:32.346Z,102350.48
2019-05-15T21:13:03.436Z,102340.66
2019-05-15T21:15:34.480Z,102350.28
2019-05-15T21:18:14.668Z,102341.50
2019-05-15T21:20:38.290Z,102343.69
2019-05-15T21:23:09.517Z,102340.74
2019-05-15T21:25:40.556Z,102337.95
2019-05-15T21:28:12.428Z,102334.73
2019-05-15T21:30:43.443Z,102332.97
2019-05-15T21:33:14.496Z,102329.91
2019-05-15T21:35:47.634Z,102326.02
2019-05-15T21:38:21.214Z,102321.86
2019-05-15T21:40:51.109Z,102318.41
2019-05-15T21:43:22.974Z,102326.09
2019-05-15T21:45:54.046Z,102316.70
2019-05-15T21:48:25.111Z,102317.44
2019-05-15T21:50:56.319Z,102316.92
2019-05-15T21:53:28.693Z,102325.06
2019-05-15T21:56:00.100Z,102321.84
2019-05-15T21:58:33.578Z,102315.04
2019-05-15T22:01:04.829Z,102305.66
2019-05-15T22:03:35.912Z,102316.06
2019-05-15T22:06:08.794Z,102308.15
2019-05-15T22:08:39.920Z,102307.08
2019-05-15T22:11:12.671Z,102305.70
2019-05-15T22:13:47.918Z,102301.73
2019-05-15T22:16:19.484Z,102301.37
2019-05-15T22:18:52.077Z,102284.80
2019-05-15T22:21:26.401Z,102287.92
2019-05-15T22:23:59.878Z,102282.43
2019-05-15T22:26:31.746Z,102280.09
2019-05-15T22:29:03.718Z,102273.81
2019-05-15T22:31:35.050Z,102276.23
2019-05-15T22:34:07.826Z,102274.70
2019-05-15T22:36:38.867Z,102273.50
2019-05-15T22:39:10.049Z,102270.35
2019-05-15T22:41:41.195Z,102273.05
2019-05-15T22:44:13.097Z,102270.13
2019-05-15T22:46:44.149Z,102263.59
2019-05-15T22:49:18.169Z,102265.36
2019-05-15T22:51:48.795Z,102259.50
2019-05-15T22:54:21.377Z,102266.49
2019-05-15T22:56:57.560Z,102261.21
2019-05-15T22:59:28.427Z,102265.05
2019-05-15T23:01:59.517Z,102261.41
2019-05-15T23:04:30.630Z,102259.44
2019-05-15T23:07:01.692Z,102254.16
2019-05-15T23:09:32.740Z,102251.03
2019-05-15T23:12:04.098Z,102243.59
2019-05-15T23:14:35.209Z,102230.52
2019-05-15T23:17:08.204Z,102232.36
2019-05-15T23:19:39.017Z,102236.32
2019-05-15T23:22:10.044Z,102233.35
2019-05-15T23:24:41.104Z,102227.62
2019-05-15T23:27:12.192Z,102220.70
2019-05-15T23:29:44.069Z,102206.63
2019-05-15T23:32:15.147Z,102206.52
2019-05-15T23:34:49.165Z,102198.60
2019-05-15T23:37:19.771Z,102197.98
2019-05-15T23:39:50.926Z,102195.23
2019-05-15T23:42:23.433Z,102186.73
2019-05-15T23:44:54.555Z,102193.23
2019-05-15T23:47:25.632Z,102185.23
2019-05-15T23:49:57.874Z,102182.49
2019-05-15T23:52:29.734Z,102176.69
2019-05-15T23:55:00.790Z,102185.83
2019-05-15T23:57:31.854Z,102187.05
